Parkdale, AR (71661)

12:28 AM CDT on August 01, 2014 (GMT -0500)
Beekman (KLABASTR4) Elev 134 ft | 32.97 °N, 91.91 °W | Change Station

Current weather conditions updated 16 seconds ago

Overcast
Overcast
70.5 °F
Feels Like 71 °F
N
0.0
Wind Variable Wind from West
Gusts 0.0 mph

Today is forecast to be nearly the same temperature as yesterday. Showers possible.

Today
High -- | Low -- °F
--% Chance of Precip.
Yesterday
High -- | Low -- °F
Precip. -- in
6:19 AM 8:05 PM
Waxing Crescent, 23% visible
Pressure 30.04 in
Visibility 7.0 miles
Clouds Overcast 7000 ft
Heat Index 71 °F
Dew Point 64 °F
Humidity 80%
Rainfall 0.00 in
Snow Depth Not available.
UV 0 out of 12
Pollen 3.20 out of 12
Air Quality Not available.
Flu Activity Not available.
METAR KBQP 010515Z AUTO 00000KT 7SM OVC070 21/20 A3004 RMK AO2 LTG DSNT W T02100200

More Conditions Fewer Conditions

Pressure 30.04 in
Visibility 7.0 miles
Clouds Overcast 7000 ft
Heat Index 71 °F
Dew Point 64 °F
Humidity 80%
Rainfall 0.00 in
Snow Depth Not available.
UV 0 out of 12
Pollen 3.20 out of 12
Air Quality Not available.
Flu Activity Not available.
METAR KBQP 010515Z AUTO 00000KT 7SM OVC070 21/20 A3004 RMK AO2 LTG DSNT W T02100200

More Conditions Fewer Conditions

10-Day Weather Forecast

Almanac

Astronomy

Aug. 01, 2014 Rise Set
Actual Time 6:19 AM CDT 8:05 PM CDT
Civil Twilight 5:52 AM CDT 8:32 PM CDT
Nautical Twilight 5:19 AM CDT 9:04 PM CDT
Astronomical Twilight 4:45 AM CDT 9:39 PM CDT
Moon 11:24 AM CDT 11:10 PM CDT
Length of Visible Light 14h 39m
Length of Day
13h 45m
Tomorrow will be 1m 33s shorter.
Waxing Crescent, 23% of the Moon is Illuminated
Today
Waxing Crescent
Aug 3
First Quarter
Aug 10
Full
Aug 17
Last Quarter
Aug 25
New

Today's Extremes

State Highs State Lows

Community

WunderPhotos

Upload Photos

1,739,516 photos uploaded!

Nearby

Snow Depth

Station Depth Elevation
No new snow has been reported.

Earthquake Activity

City Distance Mag. Time & Date
No recent earthquake activity has been reported nearby.
Minimum magnitude displayed is 2.5.

Coastal Water Temperatures

Place Temperature
No Stations Reporting

Nearby Weather Stations

Station Location Temp. Heat Index Dew Point Humidity Wind Precip. Elev Updated Type
MesoWest SUNSHN , Portland, AR 69 °F - - - North  at  - 0.00 in / hr 125 ft 11:25 PM CDT MADIS
MesoWest ARLA , Wilmot, AR 73 °F 71 °F - - North  at  - 0.00 in / hr 108 ft 11:05 PM CDT MADIS
Beekman, Bastrop, LA 70.5 °F 71 °F 64 °F 80% West  at  0.0 mph 0.00 in / hr 134 ft 12:27 AM CDT Normal
MesoWest DERMOT , Dermott, AR 72 °F - - - North  at  - 0.00 in / hr 143 ft 11:25 PM CDT MADIS

Show More Stations Show Fewer Stations